Flight Track Log - Related Links

Times and Time Zones

All times are in EDT time to prevent confusion due to time zone crossing. See the AWI3680 flight status page for this flight to view local times or setup timezone preferences in your user account.

Time Position Orientation Groundspeed Altitude Reporting Facility
EDT Latitude Longitude Course Direction KTS MPH feet Rate Location/Type
Wed 07:53:02 PM 39.8667 -75.2833 237° Southwest 167 192 800  Level Philadelphia TRACON
Wed 07:53:38 PM 39.8500 -75.3167 237° Southwest 184 212 1,800 2,063 Climbing Philadelphia TRACON
Wed 07:54:38 PM 39.8500 -75.4000 270° West 217 250 4,100 2,082 Climbing Philadelphia TRACON
Wed 07:55:16 PM 39.8925 -75.4244 336° Northwest 265 305 5,200 2,143 Climbing New York Center
Wed 07:56:16 PM 39.9603 -75.4508 343° North 289 333 7,600 2,331 Climbing New York Center
Wed 07:57:17 PM 40.0464 -75.4836 344° North 294 338 9,900 2,132 Climbing New York Center
Wed 07:58:17 PM 40.1200 -75.5183 340° North 300 345 11,900 1,537 Climbing New York Center
Wed 07:59:18 PM 40.2067 -75.5433 348° North 307 353 13,000 559 Climbing New York Center
Wed 08:00:15 PM 40.3092 -75.5342 North 338 389 13,000 305 Level New York Center
Wed 08:01:16 PM 40.4008 -75.5322 North 362 417 13,600 992 Climbing New York Center
Wed 08:02:16 PM 40.5178 -75.5267 North 370 426 15,000 700 Climbing New York Center
Wed 08:03:16 PM 40.6203 -75.5203 North 395 455 15,000  Level New York Center
Wed 08:04:17 PM 40.7475 -75.5153 North 410 472 15,000 -50 Level New York Center
Wed 08:05:17 PM 40.8644 -75.5097 North 415 478 14,900 508 Descending New York Center
Wed 08:06:15 PM 40.9689 -75.5061 North 415 478 16,000 1,109 Climbing New York Center
Wed 08:07:16 PM 41.0919 -75.5008 North 410 472 17,100 541 Climbing New York Center
Wed 08:08:17 PM 41.2108 -75.4953 North 410 472 17,100 -50 Level New York Center
Wed 08:09:17 PM 41.3342 -75.4875 North 427 491 17,000 -35 Descending New York Center
Wed 08:11:08 PM 41.5522 -75.4278 12° North 420 483 17,000  Level Boston Center
Wed 08:12:08 PM 41.6564 -75.3467 30° Northeast 413 475 17,000 50 Level Boston Center
Wed 08:13:08 PM 41.7628 -75.2708 28° Northeast 418 481 17,100  Climbing Boston Center
Wed 08:14:08 PM 41.8647 -75.1944 29° Northeast 423 487 17,000 -50 Descending Boston Center
Wed 08:15:08 PM 41.9686 -75.1181 29° Northeast 423 487 17,000 -50 Level Boston Center
Wed 08:16:08 PM 42.0683 -75.0411 30° Northeast 423 487 16,900 -250 Descending Boston Center
Wed 08:17:08 PM 42.1703 -74.9614 30° Northeast 418 481 16,500 -800 Descending Boston Center
Wed 08:18:08 PM 42.2417 -74.8353 53° Northeast 418 481 15,300 -1,260 Descending Boston Center
Wed 08:18:48 PM 42.2875 -74.7414 57° Northeast 427 491 14,400 -1,307 Descending Boston Center
Wed 08:19:49 PM 42.3525 -74.6117 56° Northeast 417 480 13,100 -1,289 Descending Boston Center
Wed 08:20:49 PM 42.4153 -74.4817 57° Northeast 416 479 11,800 -1,240 Descending Boston Center
Wed 08:21:50 PM 42.4781 -74.3600 55° Northeast 381 438 10,600 -1,180 Descending Boston Center
Wed 08:22:51 PM 42.5256 -74.2544 59° Northeast 308 354 9,400 -1,438 Descending Boston Center
Wed 08:23:51 PM 42.5789 -74.1686 50° Northeast 288 331 7,700 -1,835 Descending Boston Center
Wed 08:24:52 PM 42.6406 -74.1025 38° Northeast 279 321 5,700 -1,983 Descending Boston Center
Wed 08:25:52 PM 42.7061 -74.0364 37° Northeast 283 326 3,700 -1,388 Descending Boston Center
Wed 08:26:53 PM 42.7653 -73.9700 39° Northeast 246 283 2,900 -787 Descending Boston Center

Login

Don't have an account? Register now (free) for customized features, flight alerts, and more!